sensor_id;sensor_type;location;lat;lon;timestamp;P1;durP1;ratioP1;P2;durP2;ratioP2
12120;SDS011;6124;59.460;17.908;2022-11-15T00:00:46;1.73;;;1.60;;
12120;SDS011;6124;59.460;17.908;2022-11-15T00:03:14;2.43;;;1.47;;
12120;SDS011;6124;59.460;17.908;2022-11-15T00:05:41;2.33;;;1.50;;
12120;SDS011;6124;59.460;17.908;2022-11-15T00:08:10;2.07;;;1.53;;
12120;SDS011;6124;59.460;17.908;2022-11-15T00:10:38;1.67;;;1.40;;
12120;SDS011;6124;59.460;17.908;2022-11-15T00:13:05;2.10;;;1.60;;
12120;SDS011;6124;59.460;17.908;2022-11-15T00:15:34;2.43;;;1.47;;
12120;SDS011;6124;59.460;17.908;2022-11-15T00:18:02;2.03;;;1.50;;
12120;SDS011;6124;59.460;17.908;2022-11-15T00:20:29;1.50;;;1.30;;
12120;SDS011;6124;59.460;17.908;2022-11-15T00:22:56;2.53;;;1.50;;
12120;SDS011;6124;59.460;17.908;2022-11-15T00:25:25;1.57;;;1.30;;
12120;SDS011;6124;59.460;17.908;2022-11-15T00:27:54;2.10;;;1.60;;
12120;SDS011;6124;59.460;17.908;2022-11-15T00:30:22;1.83;;;1.67;;
12120;SDS011;6124;59.460;17.908;2022-11-15T00:32:50;2.83;;;1.60;;
12120;SDS011;6124;59.460;17.908;2022-11-15T00:35:17;1.93;;;1.27;;
12120;SDS011;6124;59.460;17.908;2022-11-15T00:37:45;2.37;;;1.43;;
12120;SDS011;6124;59.460;17.908;2022-11-15T00:40:13;1.97;;;1.40;;
12120;SDS011;6124;59.460;17.908;2022-11-15T00:42:41;1.83;;;1.40;;
12120;SDS011;6124;59.460;17.908;2022-11-15T00:45:09;1.70;;;1.60;;
12120;SDS011;6124;59.460;17.908;2022-11-15T00:47:36;3.90;;;1.90;;
12120;SDS011;6124;59.460;17.908;2022-11-15T00:50:04;2.67;;;1.77;;
12120;SDS011;6124;59.460;17.908;2022-11-15T00:52:31;1.30;;;1.10;;
12120;SDS011;6124;59.460;17.908;2022-11-15T00:54:58;2.00;;;1.00;;
12120;SDS011;6124;59.460;17.908;2022-11-15T00:57:26;0.97;;;0.87;;
12120;SDS011;6124;59.460;17.908;2022-11-15T00:59:54;1.40;;;0.90;;
12120;SDS011;6124;59.460;17.908;2022-11-15T01:02:22;1.07;;;0.97;;
12120;SDS011;6124;59.460;17.908;2022-11-15T01:04:49;0.70;;;0.70;;
12120;SDS011;6124;59.460;17.908;2022-11-15T01:07:16;0.60;;;0.60;;
12120;SDS011;6124;59.460;17.908;2022-11-15T01:09:43;1.37;;;0.80;;
12120;SDS011;6124;59.460;17.908;2022-11-15T01:12:10;0.70;;;0.70;;
12120;SDS011;6124;59.460;17.908;2022-11-15T01:14:38;1.30;;;1.00;;
12120;SDS011;6124;59.460;17.908;2022-11-15T01:17:06;1.00;;;0.90;;
12120;SDS011;6124;59.460;17.908;2022-11-15T01:19:34;1.00;;;0.90;;
12120;SDS011;6124;59.460;17.908;2022-11-15T01:22:01;1.10;;;1.00;;
12120;SDS011;6124;59.460;17.908;2022-11-15T01:24:28;2.23;;;1.00;;
12120;SDS011;6124;59.460;17.908;2022-11-15T01:26:55;1.40;;;1.07;;
12120;SDS011;6124;59.460;17.908;2022-11-15T01:29:23;1.10;;;1.00;;
12120;SDS011;6124;59.460;17.908;2022-11-15T01:31:50;1.80;;;1.03;;
12120;SDS011;6124;59.460;17.908;2022-11-15T01:34:18;1.43;;;1.03;;
12120;SDS011;6124;59.460;17.908;2022-11-15T01:36:46;1.90;;;1.20;;
12120;SDS011;6124;59.460;17.908;2022-11-15T01:39:13;2.00;;;1.80;;
12120;SDS011;6124;59.460;17.908;2022-11-15T01:41:40;2.00;;;1.60;;
12120;SDS011;6124;59.460;17.908;2022-11-15T01:46:53;1.83;;;1.73;;
12120;SDS011;6124;59.460;17.908;2022-11-15T01:49:23;1.97;;;1.77;;
12120;SDS011;6124;59.460;17.908;2022-11-15T01:51:50;2.20;;;1.80;;
12120;SDS011;6124;59.460;17.908;2022-11-15T01:54:18;2.90;;;2.10;;
12120;SDS011;6124;59.460;17.908;2022-11-15T01:56:47;2.77;;;2.20;;
12120;SDS011;6124;59.460;17.908;2022-11-15T01:59:16;2.07;;;1.87;;
12120;SDS011;6124;59.460;17.908;2022-11-15T02:01:43;2.40;;;2.20;;
12120;SDS011;6124;59.460;17.908;2022-11-15T02:04:11;3.03;;;1.97;;
12120;SDS011;6124;59.460;17.908;2022-11-15T02:06:41;2.57;;;2.20;;
12120;SDS011;6124;59.460;17.908;2022-11-15T02:09:09;1.63;;;1.53;;
12120;SDS011;6124;59.460;17.908;2022-11-15T02:11:37;2.43;;;1.73;;
12120;SDS011;6124;59.460;17.908;2022-11-15T02:14:04;1.97;;;1.70;;
12120;SDS011;6124;59.460;17.908;2022-11-15T02:16:35;2.30;;;1.93;;
12120;SDS011;6124;59.460;17.908;2022-11-15T02:19:08;2.47;;;2.20;;
12120;SDS011;6124;59.460;17.908;2022-11-15T02:21:41;2.50;;;2.13;;
12120;SDS011;6124;59.460;17.908;2022-11-15T02:27:16;2.93;;;2.57;;
12120;SDS011;6124;59.460;17.908;2022-11-15T02:29:56;2.80;;;2.20;;
12120;SDS011;6124;59.460;17.908;2022-11-15T02:32:30;3.50;;;2.30;;
12120;SDS011;6124;59.460;17.908;2022-11-15T02:35:01;3.00;;;2.50;;
12120;SDS011;6124;59.460;17.908;2022-11-15T02:37:31;2.83;;;2.17;;
12120;SDS011;6124;59.460;17.908;2022-11-15T02:39:59;2.57;;;2.20;;
12120;SDS011;6124;59.460;17.908;2022-11-15T02:42:31;2.90;;;2.60;;
12120;SDS011;6124;59.460;17.908;2022-11-15T02:45:17;2.70;;;2.40;;
12120;SDS011;6124;59.460;17.908;2022-11-15T02:47:47;3.37;;;2.30;;
12120;SDS011;6124;59.460;17.908;2022-11-15T02:50:17;2.93;;;2.30;;
12120;SDS011;6124;59.460;17.908;2022-11-15T02:52:45;3.33;;;2.70;;
12120;SDS011;6124;59.460;17.908;2022-11-15T02:55:26;3.80;;;2.47;;
12120;SDS011;6124;59.460;17.908;2022-11-15T02:57:55;3.67;;;2.60;;
12120;SDS011;6124;59.460;17.908;2022-11-15T03:00:26;3.33;;;2.37;;
12120;SDS011;6124;59.460;17.908;2022-11-15T03:03:09;3.27;;;2.53;;
12120;SDS011;6124;59.460;17.908;2022-11-15T03:05:41;2.67;;;2.20;;
12120;SDS011;6124;59.460;17.908;2022-11-15T03:08:14;4.27;;;2.90;;
12120;SDS011;6124;59.460;17.908;2022-11-15T03:10:45;3.60;;;2.80;;
12120;SDS011;6124;59.460;17.908;2022-11-15T03:13:18;3.40;;;2.30;;
12120;SDS011;6124;59.460;17.908;2022-11-15T03:15:48;2.53;;;2.00;;
12120;SDS011;6124;59.460;17.908;2022-11-15T03:18:19;3.77;;;2.10;;
12120;SDS011;6124;59.460;17.908;2022-11-15T03:20:48;2.40;;;2.10;;
12120;SDS011;6124;59.460;17.908;2022-11-15T03:23:16;2.70;;;2.03;;
12120;SDS011;6124;59.460;17.908;2022-11-15T03:25:45;3.27;;;2.40;;
12120;SDS011;6124;59.460;17.908;2022-11-15T03:28:15;3.53;;;2.57;;
12120;SDS011;6124;59.460;17.908;2022-11-15T03:30:43;3.60;;;2.60;;
12120;SDS011;6124;59.460;17.908;2022-11-15T03:33:11;3.53;;;2.73;;
12120;SDS011;6124;59.460;17.908;2022-11-15T03:35:40;3.53;;;2.57;;
12120;SDS011;6124;59.460;17.908;2022-11-15T03:38:11;3.20;;;2.70;;
12120;SDS011;6124;59.460;17.908;2022-11-15T03:40:41;4.50;;;3.03;;
12120;SDS011;6124;59.460;17.908;2022-11-15T03:43:10;4.07;;;2.80;;
12120;SDS011;6124;59.460;17.908;2022-11-15T03:45:43;4.93;;;3.27;;
12120;SDS011;6124;59.460;17.908;2022-11-15T03:48:12;4.40;;;3.10;;
12120;SDS011;6124;59.460;17.908;2022-11-15T03:50:42;5.03;;;3.30;;
12120;SDS011;6124;59.460;17.908;2022-11-15T03:53:09;3.40;;;3.07;;
12120;SDS011;6124;59.460;17.908;2022-11-15T03:55:37;4.17;;;3.07;;
12120;SDS011;6124;59.460;17.908;2022-11-15T03:58:04;4.83;;;3.10;;
12120;SDS011;6124;59.460;17.908;2022-11-15T04:00:31;4.97;;;3.13;;
12120;SDS011;6124;59.460;17.908;2022-11-15T04:02:59;3.07;;;2.67;;
12120;SDS011;6124;59.460;17.908;2022-11-15T04:05:26;2.90;;;2.60;;
12120;SDS011;6124;59.460;17.908;2022-11-15T04:07:54;3.77;;;2.53;;
12120;SDS011;6124;59.460;17.908;2022-11-15T04:10:22;2.43;;;2.23;;
12120;SDS011;6124;59.460;17.908;2022-11-15T04:12:49;2.67;;;2.40;;
12120;SDS011;6124;59.460;17.908;2022-11-15T04:15:17;2.50;;;1.93;;
12120;SDS011;6124;59.460;17.908;2022-11-15T04:17:46;2.10;;;1.90;;
12120;SDS011;6124;59.460;17.908;2022-11-15T04:20:14;2.43;;;2.00;;
12120;SDS011;6124;59.460;17.908;2022-11-15T04:23:01;2.63;;;2.30;;
12120;SDS011;6124;59.460;17.908;2022-11-15T04:25:47;2.37;;;2.00;;
12120;SDS011;6124;59.460;17.908;2022-11-15T04:28:16;2.20;;;2.00;;
12120;SDS011;6124;59.460;17.908;2022-11-15T04:30:43;4.07;;;2.37;;
12120;SDS011;6124;59.460;17.908;2022-11-15T04:33:11;4.33;;;2.50;;
12120;SDS011;6124;59.460;17.908;2022-11-15T04:35:38;3.70;;;2.83;;
12120;SDS011;6124;59.460;17.908;2022-11-15T04:38:07;3.47;;;2.30;;
12120;SDS011;6124;59.460;17.908;2022-11-15T04:40:35;4.27;;;2.80;;
12120;SDS011;6124;59.460;17.908;2022-11-15T04:43:03;4.07;;;2.80;;
12120;SDS011;6124;59.460;17.908;2022-11-15T04:45:30;4.20;;;2.60;;
12120;SDS011;6124;59.460;17.908;2022-11-15T04:47:58;2.70;;;2.50;;
12120;SDS011;6124;59.460;17.908;2022-11-15T04:50:25;4.20;;;2.87;;
12120;SDS011;6124;59.460;17.908;2022-11-15T04:52:53;7.53;;;3.10;;
12120;SDS011;6124;59.460;17.908;2022-11-15T04:55:22;3.87;;;2.97;;
12120;SDS011;6124;59.460;17.908;2022-11-15T04:57:56;4.57;;;3.00;;
12120;SDS011;6124;59.460;17.908;2022-11-15T05:00:24;3.73;;;2.97;;
12120;SDS011;6124;59.460;17.908;2022-11-15T05:02:52;3.30;;;2.87;;
12120;SDS011;6124;59.460;17.908;2022-11-15T05:05:37;5.23;;;3.23;;
12120;SDS011;6124;59.460;17.908;2022-11-15T05:08:04;3.37;;;2.97;;
12120;SDS011;6124;59.460;17.908;2022-11-15T05:10:33;4.93;;;2.90;;
12120;SDS011;6124;59.460;17.908;2022-11-15T05:13:00;5.13;;;3.27;;
12120;SDS011;6124;59.460;17.908;2022-11-15T05:15:27;3.97;;;2.80;;
12120;SDS011;6124;59.460;17.908;2022-11-15T05:17:57;3.87;;;3.30;;
12120;SDS011;6124;59.460;17.908;2022-11-15T05:20:24;4.87;;;3.20;;
12120;SDS011;6124;59.460;17.908;2022-11-15T05:22:52;6.03;;;3.30;;
12120;SDS011;6124;59.460;17.908;2022-11-15T05:25:20;6.20;;;3.27;;
12120;SDS011;6124;59.460;17.908;2022-11-15T05:27:49;4.33;;;3.00;;
12120;SDS011;6124;59.460;17.908;2022-11-15T05:30:16;4.30;;;2.97;;
12120;SDS011;6124;59.460;17.908;2022-11-15T05:32:43;7.10;;;3.30;;
12120;SDS011;6124;59.460;17.908;2022-11-15T05:35:12;4.00;;;2.77;;
12120;SDS011;6124;59.460;17.908;2022-11-15T05:37:40;4.40;;;3.30;;
12120;SDS011;6124;59.460;17.908;2022-11-15T05:40:08;9.63;;;3.10;;
12120;SDS011;6124;59.460;17.908;2022-11-15T05:42:35;5.30;;;2.90;;
12120;SDS011;6124;59.460;17.908;2022-11-15T05:45:04;4.93;;;2.90;;
12120;SDS011;6124;59.460;17.908;2022-11-15T05:47:33;3.60;;;2.70;;
12120;SDS011;6124;59.460;17.908;2022-11-15T05:50:00;7.27;;;2.73;;
12120;SDS011;6124;59.460;17.908;2022-11-15T05:52:29;4.20;;;2.13;;
12120;SDS011;6124;59.460;17.908;2022-11-15T05:54:57;3.63;;;1.87;;
12120;SDS011;6124;59.460;17.908;2022-11-15T05:57:24;3.47;;;2.10;;
12120;SDS011;6124;59.460;17.908;2022-11-15T05:59:52;6.23;;;1.90;;
12120;SDS011;6124;59.460;17.908;2022-11-15T06:02:22;5.60;;;1.80;;
12120;SDS011;6124;59.460;17.908;2022-11-15T06:04:49;5.10;;;1.70;;
12120;SDS011;6124;59.460;17.908;2022-11-15T06:07:16;3.50;;;1.70;;
12120;SDS011;6124;59.460;17.908;2022-11-15T06:09:43;4.77;;;1.97;;
12120;SDS011;6124;59.460;17.908;2022-11-15T06:12:11;5.60;;;2.10;;
12120;SDS011;6124;59.460;17.908;2022-11-15T06:14:38;3.47;;;1.83;;
12120;SDS011;6124;59.460;17.908;2022-11-15T06:17:05;3.87;;;1.63;;
12120;SDS011;6124;59.460;17.908;2022-11-15T06:19:34;4.83;;;1.80;;
12120;SDS011;6124;59.460;17.908;2022-11-15T06:22:01;5.53;;;2.07;;
12120;SDS011;6124;59.460;17.908;2022-11-15T06:24:28;4.67;;;1.60;;
12120;SDS011;6124;59.460;17.908;2022-11-15T06:26:56;5.03;;;1.80;;
12120;SDS011;6124;59.460;17.908;2022-11-15T06:29:24;2.90;;;1.37;;
12120;SDS011;6124;59.460;17.908;2022-11-15T06:31:51;3.90;;;1.37;;
12120;SDS011;6124;59.460;17.908;2022-11-15T06:34:18;3.50;;;1.30;;
12120;SDS011;6124;59.460;17.908;2022-11-15T06:36:47;2.67;;;1.57;;
12120;SDS011;6124;59.460;17.908;2022-11-15T06:39:14;5.40;;;1.73;;
12120;SDS011;6124;59.460;17.908;2022-11-15T06:41:41;6.00;;;1.80;;
12120;SDS011;6124;59.460;17.908;2022-11-15T06:44:09;5.17;;;1.37;;
12120;SDS011;6124;59.460;17.908;2022-11-15T06:46:36;4.70;;;1.57;;
12120;SDS011;6124;59.460;17.908;2022-11-15T06:49:03;2.83;;;1.50;;
12120;SDS011;6124;59.460;17.908;2022-11-15T06:51:30;4.50;;;1.50;;
12120;SDS011;6124;59.460;17.908;2022-11-15T06:53:59;4.13;;;1.53;;
12120;SDS011;6124;59.460;17.908;2022-11-15T06:56:26;2.67;;;1.43;;
12120;SDS011;6124;59.460;17.908;2022-11-15T06:58:54;3.97;;;1.40;;
12120;SDS011;6124;59.460;17.908;2022-11-15T07:01:22;4.07;;;1.57;;
12120;SDS011;6124;59.460;17.908;2022-11-15T07:03:49;5.80;;;1.70;;
12120;SDS011;6124;59.460;17.908;2022-11-15T07:06:16;2.60;;;1.40;;
12120;SDS011;6124;59.460;17.908;2022-11-15T07:08:43;5.43;;;1.73;;
12120;SDS011;6124;59.460;17.908;2022-11-15T07:11:12;5.17;;;1.80;;
12120;SDS011;6124;59.460;17.908;2022-11-15T07:13:39;4.77;;;1.50;;
12120;SDS011;6124;59.460;17.908;2022-11-15T07:16:07;6.10;;;2.40;;
12120;SDS011;6124;59.460;17.908;2022-11-15T07:18:35;4.50;;;1.30;;
12120;SDS011;6124;59.460;17.908;2022-11-15T07:21:03;5.70;;;1.83;;
12120;SDS011;6124;59.460;17.908;2022-11-15T07:23:30;5.70;;;1.97;;
12120;SDS011;6124;59.460;17.908;2022-11-15T07:25:58;6.47;;;1.80;;
12120;SDS011;6124;59.460;17.908;2022-11-15T07:28:27;8.93;;;1.70;;
12120;SDS011;6124;59.460;17.908;2022-11-15T07:30:54;3.97;;;1.60;;
12120;SDS011;6124;59.460;17.908;2022-11-15T07:33:21;4.00;;;1.70;;
12120;SDS011;6124;59.460;17.908;2022-11-15T07:35:49;6.27;;;2.07;;
12120;SDS011;6124;59.460;17.908;2022-11-15T07:38:16;10.10;;;2.60;;
12120;SDS011;6124;59.460;17.908;2022-11-15T07:40:45;5.90;;;2.00;;
12120;SDS011;6124;59.460;17.908;2022-11-15T07:43:12;6.20;;;1.40;;
12120;SDS011;6124;59.460;17.908;2022-11-15T07:45:41;7.63;;;2.03;;
12120;SDS011;6124;59.460;17.908;2022-11-15T07:48:09;5.80;;;1.60;;
12120;SDS011;6124;59.460;17.908;2022-11-15T07:50:36;5.10;;;1.50;;
12120;SDS011;6124;59.460;17.908;2022-11-15T07:53:03;6.03;;;1.90;;
12120;SDS011;6124;59.460;17.908;2022-11-15T07:55:31;6.80;;;1.77;;
12120;SDS011;6124;59.460;17.908;2022-11-15T07:58:01;4.80;;;1.40;;
12120;SDS011;6124;59.460;17.908;2022-11-15T08:00:29;5.63;;;1.90;;
12120;SDS011;6124;59.460;17.908;2022-11-15T08:03:04;3.27;;;1.53;;
12120;SDS011;6124;59.460;17.908;2022-11-15T08:05:32;6.73;;;1.70;;
12120;SDS011;6124;59.460;17.908;2022-11-15T08:07:59;3.97;;;1.33;;
12120;SDS011;6124;59.460;17.908;2022-11-15T08:10:26;4.17;;;1.30;;
12120;SDS011;6124;59.460;17.908;2022-11-15T08:12:57;2.77;;;1.27;;
12120;SDS011;6124;59.460;17.908;2022-11-15T08:15:25;6.67;;;1.50;;
12120;SDS011;6124;59.460;17.908;2022-11-15T08:17:55;4.40;;;1.40;;
12120;SDS011;6124;59.460;17.908;2022-11-15T08:20:24;3.53;;;1.23;;
12120;SDS011;6124;59.460;17.908;2022-11-15T08:22:54;4.37;;;1.63;;
12120;SDS011;6124;59.460;17.908;2022-11-15T08:25:22;4.63;;;1.30;;
12120;SDS011;6124;59.460;17.908;2022-11-15T08:27:51;6.83;;;1.57;;
12120;SDS011;6124;59.460;17.908;2022-11-15T08:30:19;4.57;;;1.53;;
12120;SDS011;6124;59.460;17.908;2022-11-15T08:32:46;3.80;;;1.43;;
12120;SDS011;6124;59.460;17.908;2022-11-15T08:35:14;6.00;;;1.63;;
12120;SDS011;6124;59.460;17.908;2022-11-15T08:37:42;4.03;;;1.00;;
12120;SDS011;6124;59.460;17.908;2022-11-15T08:40:10;5.57;;;1.30;;
12120;SDS011;6124;59.460;17.908;2022-11-15T08:42:39;5.07;;;1.50;;
12120;SDS011;6124;59.460;17.908;2022-11-15T08:45:06;3.47;;;1.70;;
12120;SDS011;6124;59.460;17.908;2022-11-15T08:47:34;4.57;;;1.10;;
12120;SDS011;6124;59.460;17.908;2022-11-15T08:50:01;5.47;;;1.53;;
12120;SDS011;6124;59.460;17.908;2022-11-15T08:52:28;4.93;;;1.00;;
12120;SDS011;6124;59.460;17.908;2022-11-15T08:54:58;5.83;;;1.20;;
12120;SDS011;6124;59.460;17.908;2022-11-15T08:57:27;4.03;;;0.80;;
12120;SDS011;6124;59.460;17.908;2022-11-15T08:59:55;3.10;;;1.13;;
12120;SDS011;6124;59.460;17.908;2022-11-15T09:02:22;7.30;;;1.20;;
12120;SDS011;6124;59.460;17.908;2022-11-15T09:04:49;3.63;;;0.80;;
12120;SDS011;6124;59.460;17.908;2022-11-15T09:07:17;3.87;;;0.87;;
12120;SDS011;6124;59.460;17.908;2022-11-15T09:09:44;6.73;;;1.30;;
12120;SDS011;6124;59.460;17.908;2022-11-15T09:12:13;2.83;;;0.90;;
12120;SDS011;6124;59.460;17.908;2022-11-15T09:14:40;5.67;;;1.10;;
12120;SDS011;6124;59.460;17.908;2022-11-15T09:17:07;4.33;;;0.90;;
12120;SDS011;6124;59.460;17.908;2022-11-15T09:19:35;2.53;;;1.10;;
12120;SDS011;6124;59.460;17.908;2022-11-15T09:22:05;1.33;;;0.70;;
12120;SDS011;6124;59.460;17.908;2022-11-15T09:24:32;3.27;;;1.00;;
12120;SDS011;6124;59.460;17.908;2022-11-15T09:27:00;2.73;;;1.00;;
12120;SDS011;6124;59.460;17.908;2022-11-15T09:29:28;5.43;;;1.10;;
12120;SDS011;6124;59.460;17.908;2022-11-15T09:31:55;3.77;;;1.10;;
12120;SDS011;6124;59.460;17.908;2022-11-15T09:34:23;3.73;;;1.10;;
12120;SDS011;6124;59.460;17.908;2022-11-15T09:36:50;3.77;;;1.10;;
12120;SDS011;6124;59.460;17.908;2022-11-15T09:39:17;3.17;;;0.90;;
12120;SDS011;6124;59.460;17.908;2022-11-15T09:44:41;2.27;;;1.00;;
12120;SDS011;6124;59.460;17.908;2022-11-15T09:47:17;3.03;;;1.00;;
12120;SDS011;6124;59.460;17.908;2022-11-15T09:49:51;2.73;;;1.07;;
12120;SDS011;6124;59.460;17.908;2022-11-15T09:52:18;2.33;;;1.20;;
12120;SDS011;6124;59.460;17.908;2022-11-15T09:54:47;1.93;;;1.00;;
12120;SDS011;6124;59.460;17.908;2022-11-15T09:57:15;1.90;;;1.00;;
12120;SDS011;6124;59.460;17.908;2022-11-15T09:59:49;3.30;;;1.03;;
12120;SDS011;6124;59.460;17.908;2022-11-15T10:02:28;4.47;;;1.00;;
12120;SDS011;6124;59.460;17.908;2022-11-15T10:04:58;5.13;;;1.10;;
12120;SDS011;6124;59.460;17.908;2022-11-15T10:07:27;3.40;;;1.00;;
12120;SDS011;6124;59.460;17.908;2022-11-15T10:09:55;3.23;;;1.10;;
12120;SDS011;6124;59.460;17.908;2022-11-15T10:12:23;3.17;;;1.00;;
12120;SDS011;6124;59.460;17.908;2022-11-15T10:14:55;2.67;;;1.00;;
12120;SDS011;6124;59.460;17.908;2022-11-15T10:17:30;2.50;;;0.87;;
12120;SDS011;6124;59.460;17.908;2022-11-15T10:20:02;3.80;;;1.13;;
12120;SDS011;6124;59.460;17.908;2022-11-15T10:22:35;4.03;;;1.23;;
12120;SDS011;6124;59.460;17.908;2022-11-15T10:27:54;2.23;;;1.17;;
12120;SDS011;6124;59.460;17.908;2022-11-15T10:30:23;2.20;;;1.20;;
12120;SDS011;6124;59.460;17.908;2022-11-15T10:32:57;2.10;;;1.13;;
12120;SDS011;6124;59.460;17.908;2022-11-15T10:35:25;2.80;;;1.17;;
12120;SDS011;6124;59.460;17.908;2022-11-15T10:37:56;3.53;;;1.40;;
12120;SDS011;6124;59.460;17.908;2022-11-15T10:40:31;2.77;;;0.90;;
12120;SDS011;6124;59.460;17.908;2022-11-15T10:43:04;2.40;;;1.13;;
12120;SDS011;6124;59.460;17.908;2022-11-15T10:45:33;3.60;;;1.17;;
12120;SDS011;6124;59.460;17.908;2022-11-15T10:48:20;3.17;;;1.13;;
12120;SDS011;6124;59.460;17.908;2022-11-15T10:50:48;1.90;;;1.00;;
12120;SDS011;6124;59.460;17.908;2022-11-15T10:53:19;2.57;;;1.30;;
12120;SDS011;6124;59.460;17.908;2022-11-15T10:55:48;2.53;;;1.20;;
12120;SDS011;6124;59.460;17.908;2022-11-15T10:58:19;2.30;;;1.23;;
12120;SDS011;6124;59.460;17.908;2022-11-15T11:00:49;3.17;;;1.33;;
12120;SDS011;6124;59.460;17.908;2022-11-15T11:03:28;4.03;;;1.30;;
12120;SDS011;6124;59.460;17.908;2022-11-15T11:06:03;3.03;;;1.40;;
12120;SDS011;6124;59.460;17.908;2022-11-15T11:08:31;2.50;;;1.40;;
12120;SDS011;6124;59.460;17.908;2022-11-15T11:10:59;2.80;;;1.30;;
12120;SDS011;6124;59.460;17.908;2022-11-15T11:13:27;3.83;;;1.43;;
12120;SDS011;6124;59.460;17.908;2022-11-15T11:15:58;4.83;;;1.10;;
12120;SDS011;6124;59.460;17.908;2022-11-15T11:18:28;3.73;;;1.30;;
12120;SDS011;6124;59.460;17.908;2022-11-15T11:20:58;3.20;;;1.50;;
12120;SDS011;6124;59.460;17.908;2022-11-15T11:23:36;2.70;;;1.23;;
12120;SDS011;6124;59.460;17.908;2022-11-15T11:26:10;3.57;;;1.30;;
12120;SDS011;6124;59.460;17.908;2022-11-15T11:28:42;2.37;;;1.27;;
12120;SDS011;6124;59.460;17.908;2022-11-15T11:31:17;4.57;;;1.30;;
12120;SDS011;6124;59.460;17.908;2022-11-15T11:33:49;2.70;;;1.30;;
12120;SDS011;6124;59.460;17.908;2022-11-15T11:36:19;2.47;;;1.20;;
12120;SDS011;6124;59.460;17.908;2022-11-15T11:38:55;3.37;;;1.40;;
12120;SDS011;6124;59.460;17.908;2022-11-15T11:41:30;3.23;;;1.30;;
12120;SDS011;6124;59.460;17.908;2022-11-15T11:44:05;2.90;;;1.60;;
12120;SDS011;6124;59.460;17.908;2022-11-15T11:46:42;2.93;;;1.40;;
12120;SDS011;6124;59.460;17.908;2022-11-15T11:49:15;6.60;;;1.63;;
12120;SDS011;6124;59.460;17.908;2022-11-15T11:51:43;4.73;;;1.40;;
12120;SDS011;6124;59.460;17.908;2022-11-15T11:54:13;3.90;;;1.30;;
12120;SDS011;6124;59.460;17.908;2022-11-15T11:56:42;3.77;;;1.17;;
12120;SDS011;6124;59.460;17.908;2022-11-15T11:59:12;4.60;;;1.50;;
12120;SDS011;6124;59.460;17.908;2022-11-15T12:01:45;6.30;;;1.70;;
12120;SDS011;6124;59.460;17.908;2022-11-15T12:04:13;3.83;;;1.27;;
12120;SDS011;6124;59.460;17.908;2022-11-15T12:06:42;2.00;;;1.30;;
12120;SDS011;6124;59.460;17.908;2022-11-15T12:09:13;4.50;;;1.20;;
12120;SDS011;6124;59.460;17.908;2022-11-15T12:11:43;2.97;;;1.10;;
12120;SDS011;6124;59.460;17.908;2022-11-15T12:14:24;1.83;;;1.20;;
12120;SDS011;6124;59.460;17.908;2022-11-15T12:16:55;2.80;;;1.30;;
12120;SDS011;6124;59.460;17.908;2022-11-15T12:19:23;2.00;;;1.40;;
12120;SDS011;6124;59.460;17.908;2022-11-15T12:21:53;2.33;;;1.33;;
12120;SDS011;6124;59.460;17.908;2022-11-15T12:24:24;3.23;;;1.50;;
12120;SDS011;6124;59.460;17.908;2022-11-15T12:26:55;4.30;;;1.47;;
12120;SDS011;6124;59.460;17.908;2022-11-15T12:29:25;1.83;;;1.40;;
12120;SDS011;6124;59.460;17.908;2022-11-15T12:31:56;6.03;;;1.47;;
12120;SDS011;6124;59.460;17.908;2022-11-15T12:34:35;4.87;;;1.40;;
12120;SDS011;6124;59.460;17.908;2022-11-15T12:37:31;4.33;;;1.20;;
12120;SDS011;6124;59.460;17.908;2022-11-15T12:42:58;2.83;;;1.47;;
12120;SDS011;6124;59.460;17.908;2022-11-15T12:45:27;3.10;;;1.30;;
12120;SDS011;6124;59.460;17.908;2022-11-15T12:48:03;3.03;;;1.30;;
12120;SDS011;6124;59.460;17.908;2022-11-15T12:50:54;3.37;;;1.43;;
12120;SDS011;6124;59.460;17.908;2022-11-15T12:53:26;3.47;;;1.87;;
12120;SDS011;6124;59.460;17.908;2022-11-15T12:56:08;4.43;;;1.40;;
12120;SDS011;6124;59.460;17.908;2022-11-15T12:58:40;2.00;;;1.30;;
12120;SDS011;6124;59.460;17.908;2022-11-15T13:01:08;5.47;;;1.70;;
12120;SDS011;6124;59.460;17.908;2022-11-15T13:03:43;2.50;;;1.10;;
12120;SDS011;6124;59.460;17.908;2022-11-15T13:06:39;4.17;;;1.63;;
12120;SDS011;6124;59.460;17.908;2022-11-15T13:11:53;3.97;;;1.30;;
12120;SDS011;6124;59.460;17.908;2022-11-15T13:17:29;4.20;;;1.60;;
12120;SDS011;6124;59.460;17.908;2022-11-15T13:20:00;4.77;;;1.50;;
12120;SDS011;6124;59.460;17.908;2022-11-15T13:22:37;5.93;;;1.80;;
12120;SDS011;6124;59.460;17.908;2022-11-15T13:25:21;5.10;;;1.60;;
12120;SDS011;6124;59.460;17.908;2022-11-15T13:27:50;4.20;;;1.90;;
12120;SDS011;6124;59.460;17.908;2022-11-15T13:30:20;5.27;;;1.90;;
12120;SDS011;6124;59.460;17.908;2022-11-15T13:32:47;2.60;;;1.33;;
12120;SDS011;6124;59.460;17.908;2022-11-15T13:35:20;2.93;;;1.60;;
12120;SDS011;6124;59.460;17.908;2022-11-15T13:37:48;3.63;;;1.90;;
12120;SDS011;6124;59.460;17.908;2022-11-15T13:40:18;2.07;;;1.27;;
12120;SDS011;6124;59.460;17.908;2022-11-15T13:42:46;2.60;;;1.60;;
12120;SDS011;6124;59.460;17.908;2022-11-15T13:45:14;1.70;;;1.47;;
12120;SDS011;6124;59.460;17.908;2022-11-15T13:47:42;3.43;;;1.60;;
12120;SDS011;6124;59.460;17.908;2022-11-15T13:50:10;5.00;;;1.60;;
12120;SDS011;6124;59.460;17.908;2022-11-15T13:52:39;4.87;;;1.40;;
12120;SDS011;6124;59.460;17.908;2022-11-15T13:55:09;4.93;;;1.60;;
12120;SDS011;6124;59.460;17.908;2022-11-15T13:57:41;3.87;;;1.87;;
12120;SDS011;6124;59.460;17.908;2022-11-15T14:00:23;6.10;;;2.10;;
12120;SDS011;6124;59.460;17.908;2022-11-15T14:02:51;6.17;;;1.73;;
12120;SDS011;6124;59.460;17.908;2022-11-15T14:05:19;3.53;;;1.50;;
12120;SDS011;6124;59.460;17.908;2022-11-15T14:07:53;4.27;;;1.53;;
12120;SDS011;6124;59.460;17.908;2022-11-15T14:10:25;3.33;;;1.70;;
12120;SDS011;6124;59.460;17.908;2022-11-15T14:12:52;2.97;;;1.80;;
12120;SDS011;6124;59.460;17.908;2022-11-15T14:15:24;6.93;;;1.77;;
12120;SDS011;6124;59.460;17.908;2022-11-15T14:17:52;3.87;;;1.90;;
12120;SDS011;6124;59.460;17.908;2022-11-15T14:20:24;5.80;;;1.73;;
12120;SDS011;6124;59.460;17.908;2022-11-15T14:22:55;3.23;;;1.50;;
12120;SDS011;6124;59.460;17.908;2022-11-15T14:25:22;5.33;;;1.67;;
12120;SDS011;6124;59.460;17.908;2022-11-15T14:30:36;4.93;;;2.07;;
12120;SDS011;6124;59.460;17.908;2022-11-15T14:33:11;6.43;;;2.00;;
12120;SDS011;6124;59.460;17.908;2022-11-15T14:35:41;1.77;;;1.20;;
12120;SDS011;6124;59.460;17.908;2022-11-15T14:38:10;2.37;;;1.47;;
12120;SDS011;6124;59.460;17.908;2022-11-15T14:40:37;4.60;;;1.20;;
12120;SDS011;6124;59.460;17.908;2022-11-15T14:43:07;2.40;;;1.03;;
12120;SDS011;6124;59.460;17.908;2022-11-15T14:45:35;4.43;;;1.60;;
12120;SDS011;6124;59.460;17.908;2022-11-15T14:48:02;3.20;;;1.40;;
12120;SDS011;6124;59.460;17.908;2022-11-15T14:50:30;2.07;;;1.30;;
12120;SDS011;6124;59.460;17.908;2022-11-15T14:52:58;5.00;;;1.30;;
12120;SDS011;6124;59.460;17.908;2022-11-15T14:55:28;2.97;;;1.33;;
12120;SDS011;6124;59.460;17.908;2022-11-15T14:57:57;1.53;;;1.03;;
12120;SDS011;6124;59.460;17.908;2022-11-15T15:00:24;3.57;;;1.37;;
12120;SDS011;6124;59.460;17.908;2022-11-15T15:02:52;3.87;;;1.27;;
12120;SDS011;6124;59.460;17.908;2022-11-15T15:05:20;3.70;;;1.20;;
12120;SDS011;6124;59.460;17.908;2022-11-15T15:07:48;5.20;;;1.20;;
12120;SDS011;6124;59.460;17.908;2022-11-15T15:10:16;2.90;;;1.17;;
12120;SDS011;6124;59.460;17.908;2022-11-15T15:12:45;5.83;;;1.60;;
12120;SDS011;6124;59.460;17.908;2022-11-15T15:15:13;2.37;;;1.37;;
12120;SDS011;6124;59.460;17.908;2022-11-15T15:17:40;4.47;;;1.37;;
12120;SDS011;6124;59.460;17.908;2022-11-15T15:20:08;3.10;;;1.20;;
12120;SDS011;6124;59.460;17.908;2022-11-15T15:22:36;3.93;;;1.30;;
12120;SDS011;6124;59.460;17.908;2022-11-15T15:25:08;2.67;;;0.90;;